Time;durP1;ratioP1;P1;durP2;ratioP2;P2;SDS_P1;SDS_P2;PMS_P1;PMS_P2;Temp;Humidity;BMP_temperature;BMP_pressure;BME280_temperature;BME280_humidity;BME280_pressure;Samples;Min_cycle;Max_cycle;Signal;HPM_P1;HPM_P2
2021/11/20 00:04:28;;;;;;;46.60;28.43;;;;;10.90;102441.00;;;;10475598;28;20200;-77
2021/11/20 00:09:31;;;;;;;47.10;29.60;;;;;10.90;102431.00;;;;10486732;28;20193;-78
2021/11/20 00:14:33;;;;;;;41.70;28.07;;;;;10.90;102428.00;;;;10478442;28;20194;-78
2021/11/20 00:19:36;;;;;;;47.87;30.50;;;;;10.90;102426.00;;;;10519166;28;20265;-77
2021/11/20 00:24:45;;;;;;;46.57;29.00;;;;;10.90;102419.00;;;;10481002;28;20216;-77
2021/11/20 00:30:03;;;;;;;42.67;29.10;;;;;10.90;102423.00;;;;10485549;28;20196;-78
2021/11/20 00:35:08;;;;;;;46.10;29.50;;;;;10.90;102423.00;;;;10478850;28;20675;-77
2021/11/20 00:40:23;;;;;;;42.20;28.70;;;;;10.90;102423.00;;;;10501826;28;20223;-77
2021/11/20 00:45:25;;;;;;;42.97;29.77;;;;;10.90;102420.00;;;;10503804;28;20196;-77
2021/11/20 00:50:28;;;;;;;47.70;30.87;;;;;10.90;102418.00;;;;10482430;28;20663;-77
2021/11/20 00:55:30;;;;;;;45.93;30.17;;;;;10.90;102421.00;;;;10526625;28;20189;-77
2021/11/20 01:00:40;;;;;;;49.83;31.83;;;;;10.90;102416.00;;;;10509142;28;20215;-78
2021/11/20 01:05:42;;;;;;;47.57;31.53;;;;;10.80;102408.00;;;;10493777;28;20713;-78
2021/11/20 01:10:51;;;;;;;48.40;31.50;;;;;10.80;102414.00;;;;10509019;28;20199;-78
2021/11/20 01:15:59;;;;;;;45.67;30.83;;;;;10.80;102401.00;;;;10480017;28;20204;-78
2021/11/20 01:21:04;;;;;;;47.20;31.33;;;;;10.80;102402.00;;;;10476815;28;20243;-78
2021/11/20 01:26:08;;;;;;;49.57;31.03;;;;;10.80;102409.00;;;;10471668;28;20201;-77
2021/11/20 01:31:22;;;;;;;51.40;30.87;;;;;10.80;102406.00;;;;10522251;28;20565;-77
2021/11/20 01:36:29;;;;;;;51.50;33.00;;;;;10.80;102404.00;;;;10495273;28;20253;-77
2021/11/20 01:41:35;;;;;;;46.90;31.37;;;;;10.80;102405.00;;;;10475373;28;20217;-77
2021/11/20 01:47:03;;;;;;;50.77;31.57;;;;;10.80;102392.00;;;;10519348;28;20711;-77
2021/11/20 01:52:13;;;;;;;47.27;31.50;;;;;10.80;102391.00;;;;10507768;28;20189;-77
2021/11/20 01:57:31;;;;;;;48.77;32.43;;;;;10.80;102385.00;;;;10499805;28;20288;-77
2021/11/20 02:03:02;;;;;;;47.83;32.37;;;;;10.80;102378.00;;;;10521858;28;20287;-77
2021/11/20 02:09:04;;;;;;;51.43;32.53;;;;;10.70;102367.00;;;;10497478;28;20555;-77
2021/11/20 02:14:16;;;;;;;48.30;30.80;;;;;10.80;102375.00;;;;10488033;28;20200;-77
2021/11/20 02:19:24;;;;;;;51.33;32.73;;;;;10.80;102372.00;;;;10485723;28;20291;-77
2021/11/20 02:24:27;;;;;;;50.53;32.67;;;;;10.80;102366.00;;;;10485353;28;20197;-77
2021/11/20 02:29:47;;;;;;;49.40;31.93;;;;;10.80;102361.00;;;;10504284;28;20279;-78
2021/11/20 02:35:01;;;;;;;51.33;31.20;;;;;10.80;102354.00;;;;10500859;28;20195;-77
2021/11/20 02:40:05;;;;;;;47.33;31.03;;;;;10.80;102344.00;;;;10522309;28;20238;-77
2021/11/20 02:45:22;;;;;;;46.07;31.17;;;;;10.80;102347.00;;;;10475057;28;20209;-77
2021/11/20 02:50:50;;;;;;;47.33;30.40;;;;;10.80;102341.00;;;;10486214;28;20222;-77
2021/11/20 02:55:52;;;;;;;49.33;31.07;;;;;10.70;102329.00;;;;10487795;28;20283;-77
2021/11/20 03:01:03;;;;;;;47.03;30.30;;;;;10.70;102328.00;;;;10477097;28;20216;-77
2021/11/20 03:06:05;;;;;;;49.03;29.57;;;;;10.70;102330.00;;;;10481809;28;20193;-77
2021/11/20 03:11:13;;;;;;;43.87;27.83;;;;;10.70;102310.00;;;;10508138;28;20636;-77
2021/11/20 03:16:19;;;;;;;47.40;28.83;;;;;10.70;102312.00;;;;10462711;28;20196;-77
2021/11/20 03:21:21;;;;;;;43.33;29.20;;;;;10.70;102301.00;;;;10491798;28;20741;-77
2021/11/20 03:26:24;;;;;;;43.60;28.23;;;;;10.70;102300.00;;;;10473032;28;20203;-77
2021/11/20 03:31:26;;;;;;;42.10;25.73;;;;;10.60;102296.00;;;;10490969;28;20682;-77
2021/11/20 03:36:28;;;;;;;37.70;25.50;;;;;10.60;102296.00;;;;10508051;28;20227;-77
2021/11/20 03:41:35;;;;;;;35.87;24.47;;;;;10.60;102287.00;;;;10507980;28;20245;-77
2021/11/20 03:46:39;;;;;;;36.37;24.10;;;;;10.60;102300.00;;;;10521307;28;20204;-77
2021/11/20 03:51:42;;;;;;;36.33;23.87;;;;;10.60;102286.00;;;;10507531;28;20181;-77
2021/11/20 03:56:44;;;;;;;31.17;22.00;;;;;10.60;102302.00;;;;10484344;28;20200;-77
2021/11/20 04:01:47;;;;;;;30.87;21.60;;;;;10.60;102298.00;;;;10483898;28;20207;-77
2021/11/20 04:06:52;;;;;;;31.03;21.10;;;;;10.60;102290.00;;;;10481123;28;20196;-77
2021/11/20 04:11:55;;;;;;;29.97;21.30;;;;;10.60;102300.00;;;;10471434;28;20200;-77
2021/11/20 04:16:57;;;;;;;27.37;20.27;;;;;10.60;102292.00;;;;10528729;28;20182;-77
2021/11/20 04:21:59;;;;;;;28.90;21.27;;;;;10.60;102294.00;;;;10480957;28;20698;-77
2021/11/20 04:27:03;;;;;;;30.07;19.33;;;;;10.60;102290.00;;;;10490568;28;20283;-77
2021/11/20 04:32:44;;;;;;;26.17;19.10;;;;;10.60;102286.00;;;;10499284;28;20684;-77
2021/11/20 04:37:47;;;;;;;26.00;19.60;;;;;10.60;102273.00;;;;10495647;28;20225;-77
2021/11/20 04:42:51;;;;;;;27.30;18.67;;;;;10.60;102277.00;;;;10492824;28;20209;-77
2021/11/20 04:47:55;;;;;;;24.47;18.67;;;;;10.60;102265.00;;;;10526789;28;20196;-77
2021/11/20 04:53:11;;;;;;;27.60;18.87;;;;;10.60;102265.00;;;;10509468;28;20210;-77
2021/11/20 04:58:15;;;;;;;22.67;17.73;;;;;10.60;102255.00;;;;10484254;28;20201;-77
2021/11/20 05:03:19;;;;;;;25.17;17.53;;;;;10.50;102249.00;;;;10524999;28;20975;-77
2021/11/20 05:08:22;;;;;;;23.40;17.40;;;;;10.50;102250.00;;;;10492361;28;20254;-77
2021/11/20 05:13:29;;;;;;;25.23;16.93;;;;;10.50;102237.00;;;;10508237;28;20230;-77
2021/11/20 05:18:32;;;;;;;23.43;16.33;;;;;10.50;102244.00;;;;10492925;28;20197;-77
2021/11/20 05:23:42;;;;;;;22.47;17.13;;;;;10.50;102247.00;;;;10500316;28;20205;-77
2021/11/20 05:28:51;;;;;;;22.60;16.10;;;;;10.50;102217.00;;;;10479004;28;20198;-77
2021/11/20 05:33:54;;;;;;;26.37;15.87;;;;;10.50;102238.00;;;;10501031;28;20263;-77
2021/11/20 05:38:59;;;;;;;22.13;15.60;;;;;10.50;102236.00;;;;10497092;28;20637;-77
2021/11/20 05:44:03;;;;;;;22.77;14.50;;;;;10.50;102239.00;;;;10489893;28;20197;-77
2021/11/20 05:49:18;;;;;;;21.50;15.47;;;;;10.40;102238.00;;;;10485858;28;20189;-77
2021/11/20 05:54:22;;;;;;;20.93;13.23;;;;;10.50;102224.00;;;;10494677;28;20197;-77
2021/11/20 05:59:30;;;;;;;24.27;14.90;;;;;10.40;102224.00;;;;10461788;28;20736;-77
2021/11/20 06:04:35;;;;;;;21.10;14.70;;;;;10.40;102228.00;;;;10486287;28;20208;-77
2021/11/20 06:09:41;;;;;;;22.93;15.30;;;;;10.40;102214.00;;;;10509037;28;20203;-77
2021/11/20 06:14:44;;;;;;;20.77;14.87;;;;;10.40;102215.00;;;;10506747;28;20193;-77
2021/11/20 06:19:46;;;;;;;22.57;15.47;;;;;10.40;102226.00;;;;10461799;28;20243;-77
2021/11/20 06:24:48;;;;;;;19.03;13.60;;;;;10.40;102205.00;;;;10500377;28;20254;-77
2021/11/20 06:29:55;;;;;;;21.03;15.33;;;;;10.40;102207.00;;;;10524021;28;20207;-77
2021/11/20 06:34:57;;;;;;;21.77;14.57;;;;;10.40;102200.00;;;;10478717;28;20189;-77
2021/11/20 06:40:17;;;;;;;22.63;14.70;;;;;10.30;102200.00;;;;10485790;28;20588;-77
2021/11/20 06:45:23;;;;;;;25.13;16.03;;;;;10.30;102210.00;;;;10520807;28;20192;-77
2021/11/20 06:50:25;;;;;;;22.37;14.67;;;;;10.40;102225.00;;;;10473259;28;20193;-77
2021/11/20 06:55:47;;;;;;;21.43;14.47;;;;;10.40;102213.00;;;;10496283;28;20200;-77
2021/11/20 07:01:07;;;;;;;22.37;14.97;;;;;10.30;102228.00;;;;10490744;28;20810;-77
2021/11/20 07:06:25;;;;;;;21.47;14.50;;;;;10.30;102227.00;;;;10447303;28;20215;-77
2021/11/20 07:11:28;;;;;;;21.03;15.10;;;;;10.30;102217.00;;;;10517658;28;20209;-77
2021/11/20 07:16:30;;;;;;;23.10;15.20;;;;;10.30;102222.00;;;;10517139;28;20200;-77
2021/11/20 07:21:33;;;;;;;20.33;13.57;;;;;10.30;102214.00;;;;10505015;28;20212;-77
2021/11/20 07:26:40;;;;;;;20.77;13.70;;;;;10.30;102217.00;;;;10500942;28;20238;-77
2021/11/20 07:31:45;;;;;;;17.80;12.73;;;;;10.30;102210.00;;;;10480672;28;20212;-77
2021/11/20 07:36:47;;;;;;;15.97;11.50;;;;;10.30;102214.00;;;;10506148;28;20205;-78
2021/11/20 07:41:51;;;;;;;16.30;12.47;;;;;10.40;102213.00;;;;10472048;28;20201;-77
2021/11/20 07:46:56;;;;;;;15.63;11.23;;;;;10.40;102203.00;;;;10474188;28;20197;-77
2021/11/20 07:52:03;;;;;;;15.53;11.83;;;;;10.40;102204.00;;;;10504582;28;20220;-78
2021/11/20 07:57:07;;;;;;;13.67;10.87;;;;;10.40;102199.00;;;;10466584;28;20189;-77
2021/11/20 08:02:10;;;;;;;17.60;11.53;;;;;10.40;102197.00;;;;10498484;28;20292;-77
2021/11/20 08:07:18;;;;;;;15.77;11.90;;;;;10.50;102200.00;;;;10495700;28;20280;-77
2021/11/20 08:12:47;;;;;;;15.13;10.97;;;;;10.50;102187.00;;;;10501203;28;20208;-77
2021/11/20 08:18:07;;;;;;;15.70;11.27;;;;;10.50;102191.00;;;;10498138;28;20192;-77
2021/11/20 08:23:17;;;;;;;15.73;11.70;;;;;10.60;102187.00;;;;10517910;28;20224;-77
2021/11/20 08:28:20;;;;;;;13.67;11.07;;;;;10.60;102178.00;;;;10491358;28;20197;-77
2021/11/20 08:33:26;;;;;;;17.27;12.97;;;;;10.60;102171.00;;;;10503167;28;20221;-77
2021/11/20 08:38:38;;;;;;;13.30;11.07;;;;;10.70;102174.00;;;;10516702;28;20288;-77
2021/11/20 08:43:41;;;;;;;14.30;11.47;;;;;10.70;102167.00;;;;10509433;28;20545;-77
2021/11/20 08:48:57;;;;;;;14.90;11.40;;;;;10.80;102157.00;;;;10491845;28;20220;-77
2021/11/20 08:54:01;;;;;;;15.07;12.10;;;;;10.80;102158.00;;;;10460944;28;20250;-77
2021/11/20 08:59:06;;;;;;;14.30;11.17;;;;;10.80;102165.00;;;;10491396;28;20207;-78
2021/11/20 09:04:42;;;;;;;13.27;10.90;;;;;10.80;102160.00;;;;10509341;28;20221;-78
2021/11/20 09:09:59;;;;;;;14.80;11.17;;;;;10.80;102159.00;;;;10518681;28;20814;-78
2021/11/20 09:15:18;;;;;;;13.97;11.10;;;;;10.80;102154.00;;;;10462621;28;20250;-78
2021/11/20 09:20:24;;;;;;;16.60;12.77;;;;;10.80;102158.00;;;;10474566;28;20240;-78
2021/11/20 09:25:27;;;;;;;15.30;12.03;;;;;10.90;102158.00;;;;10488851;28;20200;-78
2021/11/20 09:30:53;;;;;;;17.10;11.80;;;;;10.80;102158.00;;;;10491329;28;20208;-78
2021/11/20 09:35:57;;;;;;;13.60;11.57;;;;;10.80;102155.00;;;;10475279;28;20192;-78
2021/11/20 09:41:51;;;;;;;11.73;9.90;;;;;10.80;102157.00;;;;10483246;28;20236;-78
2021/11/20 09:47:06;;;;;;;13.57;10.13;;;;;10.90;102150.00;;;;10509309;28;20204;-78
2021/11/20 09:52:10;;;;;;;13.43;11.20;;;;;10.90;102149.00;;;;10493919;28;20196;-78
2021/11/20 09:57:13;;;;;;;14.50;10.83;;;;;10.90;102149.00;;;;10497820;28;20570;-78
2021/11/20 10:02:21;;;;;;;13.40;10.53;;;;;10.90;102146.00;;;;10500622;28;20205;-78
2021/11/20 10:07:57;;;;;;;13.63;10.87;;;;;10.90;102141.00;;;;10461698;28;20201;-78
2021/11/20 10:13:22;;;;;;;14.63;12.07;;;;;10.90;102132.00;;;;10488872;28;20193;-78
2021/11/20 10:18:47;;;;;;;14.77;11.67;;;;;10.90;102125.00;;;;10499035;28;20663;-78
2021/11/20 10:24:17;;;;;;;15.03;12.17;;;;;10.90;102118.00;;;;10482580;28;20205;-77
2021/11/20 10:29:34;;;;;;;15.83;12.57;;;;;10.90;102103.00;;;;10494943;28;20243;-78
2021/11/20 10:34:45;;;;;;;13.97;11.23;;;;;11.00;102112.00;;;;10501771;28;20205;-78
2021/11/20 10:39:51;;;;;;;14.80;10.80;;;;;11.00;102096.00;;;;10504721;28;20229;-78
2021/11/20 10:45:05;;;;;;;15.83;12.23;;;;;11.00;102086.00;;;;10519619;28;20225;-78
2021/11/20 10:50:17;;;;;;;15.17;12.90;;;;;10.90;102066.00;;;;10476623;28;20201;-78
2021/11/20 10:55:40;;;;;;;17.37;12.10;;;;;10.90;102074.00;;;;10522711;28;20609;-78
2021/11/20 11:01:01;;;;;;;15.00;12.53;;;;;10.80;102072.00;;;;10466240;28;20672;-78
2021/11/20 11:06:24;;;;;;;15.33;11.73;;;;;10.80;102061.00;;;;10491518;28;20238;-78
2021/11/20 11:11:42;;;;;;;17.90;14.03;;;;;10.70;102044.00;;;;10475915;28;20189;-78
2021/11/20 11:16:49;;;;;;;16.07;12.97;;;;;10.70;102042.00;;;;10502793;28;20276;-79
2021/11/20 11:22:02;;;;;;;16.90;13.50;;;;;10.80;102036.00;;;;10463557;28;20296;-78
2021/11/20 11:27:24;;;;;;;18.50;13.73;;;;;10.70;102028.00;;;;10479236;28;20198;-78
2021/11/20 11:32:30;;;;;;;18.27;15.10;;;;;10.70;102026.00;;;;10495416;28;20253;-78
2021/11/20 11:37:35;;;;;;;19.07;16.43;;;;;10.70;102006.00;;;;10490926;28;20236;-78
2021/11/20 11:42:58;;;;;;;21.30;16.10;;;;;10.70;101998.00;;;;10505651;28;20686;-78
2021/11/20 11:48:26;;;;;;;28.83;19.33;;;;;10.70;101990.00;;;;10504849;28;20718;-77
2021/11/20 11:53:57;;;;;;;26.13;19.63;;;;;10.60;101987.00;;;;10488703;28;20185;-78
2021/11/20 11:59:21;;;;;;;29.07;20.17;;;;;10.50;101970.00;;;;10488670;28;20243;-78
2021/11/20 12:04:29;;;;;;;26.60;20.03;;;;;10.50;101962.00;;;;10514469;28;20255;-78
2021/11/20 12:09:36;;;;;;;28.77;21.10;;;;;10.50;101962.00;;;;10498718;28;20195;-78
2021/11/20 12:14:42;;;;;;;29.43;22.07;;;;;10.50;101941.00;;;;10487246;28;20621;-78
2021/11/20 12:19:51;;;;;;;31.43;21.53;;;;;10.50;101931.00;;;;10503596;28;20321;-78
2021/11/20 12:25:16;;;;;;;27.60;19.77;;;;;10.40;101921.00;;;;10463030;28;20215;-78
2021/11/20 12:30:39;;;;;;;31.93;22.47;;;;;10.40;101913.00;;;;10469490;28;20229;-78
2021/11/20 12:36:10;;;;;;;28.87;20.50;;;;;10.30;101889.00;;;;10504371;28;20203;-78
2021/11/20 12:41:24;;;;;;;31.53;22.00;;;;;10.40;101878.00;;;;10479579;28;20613;-78
2021/11/20 12:46:44;;;;;;;23.47;16.60;;;;;10.30;101875.00;;;;10478832;28;20648;-78
2021/11/20 12:51:58;;;;;;;27.87;19.27;;;;;10.30;101878.00;;;;10494616;28;20185;-78
2021/11/20 12:57:12;;;;;;;30.37;21.03;;;;;10.20;101872.00;;;;10477608;28;20188;-78
2021/11/20 13:02:23;;;;;;;31.70;20.73;;;;;10.10;101860.00;;;;10488087;28;20209;-78
2021/11/20 13:07:28;;;;;;;29.13;19.70;;;;;10.00;101837.00;;;;10492427;28;20862;-78
2021/11/20 13:12:35;;;;;;;27.80;18.70;;;;;10.00;101816.00;;;;10482679;28;20189;-78
2021/11/20 13:18:06;;;;;;;25.97;17.47;;;;;10.00;101818.00;;;;10479673;28;20205;-78
2021/11/20 13:23:16;;;;;;;34.70;20.57;;;;;10.00;101799.00;;;;10478693;28;20201;-78
2021/11/20 13:28:18;;;;;;;29.87;20.30;;;;;10.00;101795.00;;;;10503629;28;20263;-77
2021/11/20 13:33:20;;;;;;;30.90;20.73;;;;;10.00;101780.00;;;;10483564;28;20259;-77
2021/11/20 13:38:22;;;;;;;28.30;19.30;;;;;9.90;101773.00;;;;10494447;28;20205;-78
2021/11/20 13:43:46;;;;;;;29.50;18.83;;;;;10.00;101758.00;;;;10507189;28;20241;-78
2021/11/20 13:48:54;;;;;;;23.80;17.60;;;;;10.00;101752.00;;;;10499250;28;20210;-78
2021/11/20 13:53:59;;;;;;;23.30;18.33;;;;;10.00;101742.00;;;;10505362;28;20192;-78
2021/11/20 13:59:15;;;;;;;24.70;17.87;;;;;9.90;101737.00;;;;10507556;28;20219;-78
2021/11/20 14:04:19;;;;;;;28.90;19.00;;;;;10.00;101730.00;;;;10494278;28;20205;-78
2021/11/20 14:09:21;;;;;;;26.43;18.63;;;;;10.00;101737.00;;;;10474960;28;20189;-78
2021/11/20 14:14:23;;;;;;;26.03;18.03;;;;;9.90;101725.00;;;;10491005;28;20704;-78
2021/11/20 14:19:29;;;;;;;25.67;18.60;;;;;9.90;101718.00;;;;10505020;28;20652;-77
2021/11/20 14:24:44;;;;;;;22.43;17.27;;;;;9.90;101700.00;;;;10515107;28;20667;-78
2021/11/20 14:29:48;;;;;;;20.80;16.27;;;;;9.90;101697.00;;;;10523770;28;20197;-78
2021/11/20 14:34:50;;;;;;;22.83;17.20;;;;;9.90;101690.00;;;;10507262;28;20240;-77
2021/11/20 14:39:57;;;;;;;19.13;14.63;;;;;9.80;101679.00;;;;10490040;28;20196;-78
2021/11/20 14:45:11;;;;;;;21.30;15.23;;;;;9.70;101680.00;;;;10493347;28;20220;-78
2021/11/20 14:50:19;;;;;;;24.53;17.73;;;;;9.70;101673.00;;;;10476346;28;20193;-77
2021/11/20 14:55:33;;;;;;;24.50;18.07;;;;;9.70;101666.00;;;;10492805;28;20193;-77
2021/11/20 15:00:35;;;;;;;18.23;14.80;;;;;9.60;101658.00;;;;10506595;28;20266;-78
2021/11/20 15:05:38;;;;;;;22.57;15.67;;;;;9.50;101653.00;;;;10514630;28;20291;-77
2021/11/20 15:10:41;;;;;;;25.13;18.37;;;;;9.50;101656.00;;;;10461190;28;20193;-77
2021/11/20 15:15:42;;;;;;;27.77;18.27;;;;;9.50;101645.00;;;;10472627;28;20234;-77
2021/11/20 15:20:45;;;;;;;24.17;17.93;;;;;9.40;101633.00;;;;10498203;28;20200;-77
2021/11/20 15:25:47;;;;;;;21.47;16.70;;;;;9.40;101640.00;;;;10477953;28;20194;-77
2021/11/20 15:30:50;;;;;;;27.57;20.00;;;;;9.30;101625.00;;;;10500766;28;20213;-78
2021/11/20 15:35:52;;;;;;;32.77;22.83;;;;;9.30;101617.00;;;;10441841;28;20663;-78
2021/11/20 15:40:55;;;;;;;27.23;19.80;;;;;9.30;101621.00;;;;10480811;28;20206;-78
2021/11/20 15:45:57;;;;;;;33.33;22.07;;;;;9.20;101606.00;;;;10488109;28;20212;-78
2021/11/20 15:50:59;;;;;;;34.10;22.37;;;;;9.10;101601.00;;;;10494183;28;20275;-78
2021/11/20 15:56:02;;;;;;;30.03;20.80;;;;;9.10;101587.00;;;;10476556;28;20561;-78
2021/11/20 16:01:04;;;;;;;33.30;21.77;;;;;9.00;101564.00;;;;10495452;28;20196;-78
2021/11/20 16:06:07;;;;;;;35.93;24.33;;;;;9.00;101569.00;;;;10484853;28;20254;-79
2021/11/20 16:11:09;;;;;;;40.93;25.37;;;;;8.90;101556.00;;;;10460427;28;20196;-78
2021/11/20 16:16:11;;;;;;;34.93;24.57;;;;;8.90;101555.00;;;;10486233;28;20580;-78
2021/11/20 16:21:17;;;;;;;42.30;26.17;;;;;8.80;101559.00;;;;10485459;28;20217;-78
2021/11/20 16:26:19;;;;;;;29.83;21.87;;;;;8.80;101559.00;;;;10508604;28;20201;-78
2021/11/20 16:31:21;;;;;;;36.23;25.03;;;;;8.80;101557.00;;;;10497481;28;20219;-77
2021/11/20 16:36:24;;;;;;;31.07;23.73;;;;;8.80;101561.00;;;;10508076;28;20201;-77
2021/11/20 16:41:33;;;;;;;41.70;26.50;;;;;8.80;101559.00;;;;10518528;28;20255;-77
2021/11/20 16:46:36;;;;;;;41.23;28.17;;;;;8.80;101548.00;;;;10504446;28;20188;-78
2021/11/20 16:56:48;;;;;;;31.87;21.83;;;;;8.80;101532.00;;;;10495849;28;20246;-78
2021/11/20 17:01:53;;;;;;;30.57;21.60;;;;;8.80;101521.00;;;;10506599;28;20262;-78
2021/11/20 17:06:55;;;;;;;32.30;22.57;;;;;8.70;101508.00;;;;10509744;28;20188;-78
2021/11/20 17:11:57;;;;;;;31.57;20.90;;;;;8.70;101503.00;;;;10491080;28;20185;-78
2021/11/20 17:17:02;;;;;;;27.50;19.67;;;;;8.70;101500.00;;;;10475484;28;20193;-78
2021/11/20 17:22:05;;;;;;;28.33;19.40;;;;;8.70;101508.00;;;;10503408;28;20209;-78
2021/11/20 17:27:07;;;;;;;23.87;16.57;;;;;8.70;101506.00;;;;10523795;28;20669;-78
2021/11/20 17:32:09;;;;;;;22.93;16.63;;;;;8.70;101498.00;;;;10507203;28;20683;-79
2021/11/20 17:37:11;;;;;;;22.70;17.20;;;;;8.60;101487.00;;;;10506814;28;20238;-78
2021/11/20 17:42:13;;;;;;;24.17;16.83;;;;;8.60;101487.00;;;;10482076;28;20232;-78
2021/11/20 17:47:15;;;;;;;23.27;16.77;;;;;8.60;101484.00;;;;10492327;28;20227;-78
2021/11/20 17:52:17;;;;;;;21.50;16.47;;;;;8.60;101476.00;;;;10518712;28;20251;-78
2021/11/20 17:57:19;;;;;;;21.43;16.47;;;;;8.50;101469.00;;;;10466777;28;20534;-78
2021/11/20 18:02:21;;;;;;;19.50;16.20;;;;;8.50;101465.00;;;;10470459;28;20217;-77
2021/11/20 18:07:24;;;;;;;18.10;15.23;;;;;8.50;101460.00;;;;10488762;28;20197;-77
2021/11/20 18:12:26;;;;;;;19.27;16.03;;;;;8.50;101455.00;;;;10456135;28;20189;-80
2021/11/20 18:17:28;;;;;;;20.03;16.40;;;;;8.50;101447.00;;;;10478375;28;20201;-77
2021/11/20 18:22:30;;;;;;;21.83;17.30;;;;;8.50;101446.00;;;;10470226;28;20223;-78
2021/11/20 18:27:32;;;;;;;25.33;18.60;;;;;8.60;101444.00;;;;10485456;28;20197;-78
2021/11/20 18:32:34;;;;;;;24.73;19.77;;;;;8.60;101432.00;;;;10486063;28;20224;-78
2021/11/20 18:37:38;;;;;;;23.90;19.30;;;;;8.50;101451.00;;;;10485447;28;20207;-78
2021/11/20 18:42:40;;;;;;;28.97;20.37;;;;;8.50;101442.00;;;;10483413;28;20250;-78
2021/11/20 18:47:42;;;;;;;24.33;17.93;;;;;8.50;101435.00;;;;10471842;28;20200;-77
2021/11/20 18:52:44;;;;;;;23.70;17.43;;;;;8.60;101421.00;;;;10485416;28;20193;-78
2021/11/20 18:57:50;;;;;;;23.57;17.47;;;;;8.50;101422.00;;;;10471524;28;20837;-77
2021/11/20 19:02:52;;;;;;;22.83;17.27;;;;;8.50;101422.00;;;;10494604;28;20575;-77
2021/11/20 19:07:54;;;;;;;22.97;17.50;;;;;8.50;101410.00;;;;10522853;28;20234;-77
2021/11/20 19:12:56;;;;;;;20.60;15.70;;;;;8.50;101399.00;;;;10486371;28;20656;-77
2021/11/20 19:17:58;;;;;;;21.63;16.53;;;;;8.50;101389.00;;;;10498347;28;20185;-77
2021/11/20 19:23:01;;;;;;;22.53;16.00;;;;;8.50;101372.00;;;;10483421;28;20710;-77
2021/11/20 19:28:04;;;;;;;25.17;17.80;;;;;8.40;101371.00;;;;10480133;28;20200;-77
2021/11/20 19:33:07;;;;;;;29.10;18.20;;;;;8.40;101356.00;;;;10485889;28;20220;-77
2021/11/20 19:38:09;;;;;;;24.60;18.80;;;;;8.40;101370.00;;;;10475662;28;20205;-78
2021/11/20 19:43:11;;;;;;;30.53;21.63;;;;;8.40;101345.00;;;;10500800;28;20212;-78
2021/11/20 19:48:13;;;;;;;29.67;21.37;;;;;8.30;101345.00;;;;10504027;28;20189;-77
2021/11/20 19:53:16;;;;;;;29.80;21.33;;;;;8.30;101343.00;;;;10517882;28;20235;-77
2021/11/20 19:58:18;;;;;;;34.67;22.33;;;;;8.30;101343.00;;;;10501742;28;20192;-77
2021/11/20 20:03:21;;;;;;;31.27;22.10;;;;;8.30;101328.00;;;;10537380;28;20259;-77
2021/11/20 20:08:24;;;;;;;32.63;21.97;;;;;8.30;101308.00;;;;10499780;28;20193;-77
2021/11/20 20:13:26;;;;;;;33.67;22.87;;;;;8.20;101314.00;;;;10506028;28;20272;-77
2021/11/20 20:18:28;;;;;;;33.73;22.27;;;;;8.20;101322.00;;;;10500694;28;20189;-77
2021/11/20 20:23:30;;;;;;;33.40;23.47;;;;;8.20;101308.00;;;;10483974;28;20209;-77
2021/11/20 20:28:32;;;;;;;32.30;22.10;;;;;8.20;101304.00;;;;10483372;28;20196;-77
2021/11/20 20:33:34;;;;;;;30.60;20.90;;;;;8.20;101303.00;;;;10484828;28;20213;-77
2021/11/20 20:38:40;;;;;;;31.50;21.53;;;;;8.10;101306.00;;;;10481375;28;20319;-77
2021/11/20 20:43:42;;;;;;;32.83;22.37;;;;;8.20;101309.00;;;;10484447;28;20243;-77
2021/11/20 20:48:46;;;;;;;31.00;22.27;;;;;8.10;101293.00;;;;10499285;28;20193;-77
2021/11/20 20:53:49;;;;;;;32.90;21.57;;;;;8.10;101286.00;;;;10478335;28;20193;-77
2021/11/20 20:58:53;;;;;;;31.93;21.90;;;;;8.00;101275.00;;;;10482134;28;20203;-77
2021/11/20 21:03:56;;;;;;;35.30;22.33;;;;;8.00;101274.00;;;;10488263;28;20213;-77
2021/11/20 21:09:13;;;;;;;33.73;21.90;;;;;8.00;101267.00;;;;10471321;28;20295;-77
2021/11/20 21:14:15;;;;;;;32.33;21.03;;;;;8.00;101258.00;;;;10482227;28;20189;-77
2021/11/20 21:24:23;;;;;;;37.77;23.20;;;;;7.90;101241.00;;;;10483055;28;20785;-77
2021/11/20 21:29:27;;;;;;;34.90;23.57;;;;;8.00;101248.00;;;;10465731;28;20201;-77
2021/11/20 21:34:30;;;;;;;37.93;24.10;;;;;7.90;101240.00;;;;10484236;28;20224;-77
2021/11/20 21:39:33;;;;;;;37.77;23.30;;;;;7.90;101226.00;;;;10475846;28;20231;-77
2021/11/20 21:44:36;;;;;;;40.37;24.90;;;;;7.90;101222.00;;;;10482971;28;20220;-77
2021/11/20 21:49:40;;;;;;;41.03;24.43;;;;;7.90;101213.00;;;;10470209;28;20193;-77
2021/11/20 21:54:43;;;;;;;39.80;24.87;;;;;7.80;101215.00;;;;10487203;28;20197;-77
2021/11/20 21:59:47;;;;;;;42.10;24.80;;;;;7.90;101230.00;;;;10466399;28;20216;-77
2021/11/20 22:04:55;;;;;;;43.47;25.07;;;;;7.80;101218.00;;;;10502572;28;20208;-77
2021/11/20 22:09:58;;;;;;;49.60;26.90;;;;;7.90;101214.00;;;;10471826;28;20197;-77
2021/11/20 22:15:05;;;;;;;45.73;25.53;;;;;7.80;101210.00;;;;10478080;28;20193;-77
2021/11/20 22:20:08;;;;;;;48.53;26.57;;;;;7.80;101218.00;;;;10501685;28;20598;-77
2021/11/20 22:25:09;;;;;;;41.43;23.23;;;;;7.80;101213.00;;;;10481578;28;20225;-77
2021/11/20 22:30:12;;;;;;;47.00;25.30;;;;;7.80;101204.00;;;;10466749;28;20260;-77
2021/11/20 22:35:23;;;;;;;45.80;24.10;;;;;7.80;101198.00;;;;10501374;28;20206;-77
2021/11/20 22:40:32;;;;;;;45.27;24.60;;;;;7.80;101201.00;;;;10485244;28;20220;-77
2021/11/20 22:45:34;;;;;;;43.50;23.63;;;;;7.80;101194.00;;;;10491548;28;20213;-77
2021/11/20 22:50:38;;;;;;;47.30;25.53;;;;;7.80;101186.00;;;;10474933;28;20681;-77
2021/11/20 22:55:40;;;;;;;39.40;21.53;;;;;7.80;101174.00;;;;10495176;28;20203;-78
2021/11/20 23:00:51;;;;;;;44.57;23.77;;;;;7.80;101165.00;;;;10496273;28;20219;-77
2021/11/20 23:05:53;;;;;;;41.50;22.50;;;;;7.80;101167.00;;;;10462395;28;20423;-77
2021/11/20 23:10:56;;;;;;;40.80;23.33;;;;;7.80;101164.00;;;;10456255;28;20201;-78
2021/11/20 23:15:58;;;;;;;40.10;21.97;;;;;7.80;101145.00;;;;10472889;28;21170;-77
2021/11/20 23:21:00;;;;;;;41.10;22.77;;;;;7.80;101135.00;;;;10455851;28;20254;-77
2021/11/20 23:26:07;;;;;;;44.87;22.97;;;;;7.80;101125.00;;;;10495248;28;20229;-77
2021/11/20 23:31:10;;;;;;;37.80;21.70;;;;;7.70;101124.00;;;;10474953;28;20303;-77
2021/11/20 23:36:25;;;;;;;41.23;22.40;;;;;7.80;101121.00;;;;10518040;28;20188;-77
2021/11/20 23:41:27;;;;;;;43.20;22.57;;;;;7.80;101110.00;;;;10469011;28;20201;-78
2021/11/20 23:46:30;;;;;;;47.20;24.57;;;;;7.80;101112.00;;;;10474092;28;20201;-77
2021/11/20 23:51:32;;;;;;;45.70;23.67;;;;;7.80;101104.00;;;;10502780;28;20207;-77
2021/11/20 23:56:34;;;;;;;51.33;26.40;;;;;7.70;101094.00;;;;10519119;28;20212;-77
